sensor_id;sensor_type;location;lat;lon;timestamp;temperature;humidity
298;DHT22;133;49.626;9.680;2022-11-15T00:00:12;11.10;88.00
298;DHT22;133;49.626;9.680;2022-11-15T00:02:37;11.10;87.80
298;DHT22;133;49.626;9.680;2022-11-15T00:05:03;11.10;88.20
298;DHT22;133;49.626;9.680;2022-11-15T00:07:28;11.00;88.30
298;DHT22;133;49.626;9.680;2022-11-15T00:09:54;11.10;88.10
298;DHT22;133;49.626;9.680;2022-11-15T00:12:20;11.00;88.10
298;DHT22;133;49.626;9.680;2022-11-15T00:14:45;11.00;88.10
298;DHT22;133;49.626;9.680;2022-11-15T00:17:11;11.00;88.20
298;DHT22;133;49.626;9.680;2022-11-15T00:19:37;11.00;88.10
298;DHT22;133;49.626;9.680;2022-11-15T00:22:02;10.90;88.40
298;DHT22;133;49.626;9.680;2022-11-15T00:24:28;10.90;88.70
298;DHT22;133;49.626;9.680;2022-11-15T00:26:53;10.80;88.90
298;DHT22;133;49.626;9.680;2022-11-15T00:29:19;10.80;89.20
298;DHT22;133;49.626;9.680;2022-11-15T00:31:44;10.80;89.30
298;DHT22;133;49.626;9.680;2022-11-15T00:34:10;10.70;89.50
298;DHT22;133;49.626;9.680;2022-11-15T00:36:36;10.70;89.70
298;DHT22;133;49.626;9.680;2022-11-15T00:39:05;10.60;89.90
298;DHT22;133;49.626;9.680;2022-11-15T00:41:31;10.60;90.00
298;DHT22;133;49.626;9.680;2022-11-15T00:43:56;10.50;90.20
298;DHT22;133;49.626;9.680;2022-11-15T00:46:22;10.40;90.30
298;DHT22;133;49.626;9.680;2022-11-15T00:48:48;10.40;90.30
298;DHT22;133;49.626;9.680;2022-11-15T00:51:13;10.30;90.50
298;DHT22;133;49.626;9.680;2022-11-15T00:53:39;10.30;90.80
298;DHT22;133;49.626;9.680;2022-11-15T00:56:05;10.30;90.60
298;DHT22;133;49.626;9.680;2022-11-15T00:58:30;10.30;90.40
298;DHT22;133;49.626;9.680;2022-11-15T01:00:56;10.20;90.50
298;DHT22;133;49.626;9.680;2022-11-15T01:03:22;10.20;91.10
298;DHT22;133;49.626;9.680;2022-11-15T01:05:47;10.10;91.60
298;DHT22;133;49.626;9.680;2022-11-15T01:08:14;10.10;91.70
298;DHT22;133;49.626;9.680;2022-11-15T01:10:40;10.10;91.80
298;DHT22;133;49.626;9.680;2022-11-15T01:13:06;10.10;91.90
298;DHT22;133;49.626;9.680;2022-11-15T01:15:32;10.10;91.90
298;DHT22;133;49.626;9.680;2022-11-15T01:17:57;10.20;92.10
298;DHT22;133;49.626;9.680;2022-11-15T01:20:23;10.20;92.20
298;DHT22;133;49.626;9.680;2022-11-15T01:22:49;10.20;91.70
298;DHT22;133;49.626;9.680;2022-11-15T01:25:14;10.40;90.90
298;DHT22;133;49.626;9.680;2022-11-15T01:27:40;10.40;90.90
298;DHT22;133;49.626;9.680;2022-11-15T01:30:06;10.30;90.80
298;DHT22;133;49.626;9.680;2022-11-15T01:32:32;10.20;91.00
298;DHT22;133;49.626;9.680;2022-11-15T01:34:57;10.20;91.20
298;DHT22;133;49.626;9.680;2022-11-15T01:37:23;10.20;91.20
298;DHT22;133;49.626;9.680;2022-11-15T01:39:48;10.10;91.50
298;DHT22;133;49.626;9.680;2022-11-15T01:42:14;10.10;91.60
298;DHT22;133;49.626;9.680;2022-11-15T01:44:41;10.10;91.50
298;DHT22;133;49.626;9.680;2022-11-15T01:47:22;10.10;91.60
298;DHT22;133;49.626;9.680;2022-11-15T01:50:04;10.10;91.40
298;DHT22;133;49.626;9.680;2022-11-15T01:52:33;10.10;91.40
298;DHT22;133;49.626;9.680;2022-11-15T01:55:16;10.00;91.90
298;DHT22;133;49.626;9.680;2022-11-15T01:57:46;9.90;92.10
298;DHT22;133;49.626;9.680;2022-11-15T02:00:14;9.80;92.30
298;DHT22;133;49.626;9.680;2022-11-15T02:02:40;9.80;92.60
298;DHT22;133;49.626;9.680;2022-11-15T02:05:06;9.80;92.50
298;DHT22;133;49.626;9.680;2022-11-15T02:07:34;9.70;92.50
298;DHT22;133;49.626;9.680;2022-11-15T02:10:04;9.70;92.60
298;DHT22;133;49.626;9.680;2022-11-15T02:12:32;9.60;93.00
298;DHT22;133;49.626;9.680;2022-11-15T02:14:58;9.50;93.20
298;DHT22;133;49.626;9.680;2022-11-15T02:22:42;9.40;93.20
298;DHT22;133;49.626;9.680;2022-11-15T02:30:44;9.20;93.80
298;DHT22;133;49.626;9.680;2022-11-15T02:33:19;9.20;93.80
298;DHT22;133;49.626;9.680;2022-11-15T02:36:02;9.30;93.60
298;DHT22;133;49.626;9.680;2022-11-15T02:38:34;9.20;93.20
298;DHT22;133;49.626;9.680;2022-11-15T02:41:17;9.10;93.50
298;DHT22;133;49.626;9.680;2022-11-15T02:46:58;9.00;93.80
298;DHT22;133;49.626;9.680;2022-11-15T02:49:52;8.90;93.70
298;DHT22;133;49.626;9.680;2022-11-15T02:52:20;8.90;93.40
298;DHT22;133;49.626;9.680;2022-11-15T02:54:54;8.70;93.50
298;DHT22;133;49.626;9.680;2022-11-15T03:00:14;8.60;93.80
298;DHT22;133;49.626;9.680;2022-11-15T03:02:48;8.50;94.00
298;DHT22;133;49.626;9.680;2022-11-15T03:13:30;8.30;95.30
298;DHT22;133;49.626;9.680;2022-11-15T03:16:09;8.40;95.30
298;DHT22;133;49.626;9.680;2022-11-15T03:18:47;8.30;95.10
298;DHT22;133;49.626;9.680;2022-11-15T03:21:16;8.30;95.00
298;DHT22;133;49.626;9.680;2022-11-15T03:23:44;8.30;95.00
298;DHT22;133;49.626;9.680;2022-11-15T03:26:14;8.30;94.90
298;DHT22;133;49.626;9.680;2022-11-15T03:28:44;8.30;95.20
298;DHT22;133;49.626;9.680;2022-11-15T03:31:12;8.40;95.20
298;DHT22;133;49.626;9.680;2022-11-15T03:33:58;8.40;95.30
298;DHT22;133;49.626;9.680;2022-11-15T03:36:25;8.40;95.40
298;DHT22;133;49.626;9.680;2022-11-15T03:38:53;8.40;95.20
298;DHT22;133;49.626;9.680;2022-11-15T03:42:27;8.40;95.00
298;DHT22;133;49.626;9.680;2022-11-15T03:44:52;8.40;95.00
298;DHT22;133;49.626;9.680;2022-11-15T03:47:34;8.30;94.80
298;DHT22;133;49.626;9.680;2022-11-15T03:50:18;8.30;95.00
298;DHT22;133;49.626;9.680;2022-11-15T03:52:48;8.20;95.30
298;DHT22;133;49.626;9.680;2022-11-15T03:55:20;8.20;95.00
298;DHT22;133;49.626;9.680;2022-11-15T03:57:47;8.20;94.70
298;DHT22;133;49.626;9.680;2022-11-15T04:00:15;8.20;94.80
298;DHT22;133;49.626;9.680;2022-11-15T04:02:41;8.10;94.70
298;DHT22;133;49.626;9.680;2022-11-15T04:05:07;8.10;94.90
298;DHT22;133;49.626;9.680;2022-11-15T04:07:33;8.00;95.20
298;DHT22;133;49.626;9.680;2022-11-15T04:09:58;7.90;95.10
298;DHT22;133;49.626;9.680;2022-11-15T04:12:36;7.90;95.80
298;DHT22;133;49.626;9.680;2022-11-15T04:15:07;8.00;96.00
298;DHT22;133;49.626;9.680;2022-11-15T04:20:18;7.90;95.40
298;DHT22;133;49.626;9.680;2022-11-15T04:23:06;7.90;95.50
298;DHT22;133;49.626;9.680;2022-11-15T04:25:52;7.80;95.70
298;DHT22;133;49.626;9.680;2022-11-15T04:28:18;7.80;95.90
298;DHT22;133;49.626;9.680;2022-11-15T04:30:45;7.90;96.00
298;DHT22;133;49.626;9.680;2022-11-15T04:33:11;7.90;96.00
298;DHT22;133;49.626;9.680;2022-11-15T04:35:36;7.80;95.90
298;DHT22;133;49.626;9.680;2022-11-15T04:38:04;7.90;96.00
298;DHT22;133;49.626;9.680;2022-11-15T04:40:30;8.00;95.70
298;DHT22;133;49.626;9.680;2022-11-15T04:42:56;7.90;95.40
298;DHT22;133;49.626;9.680;2022-11-15T04:45:21;7.80;95.20
298;DHT22;133;49.626;9.680;2022-11-15T04:47:47;7.80;95.20
298;DHT22;133;49.626;9.680;2022-11-15T04:50:14;7.80;95.20
298;DHT22;133;49.626;9.680;2022-11-15T04:52:49;7.90;94.60
298;DHT22;133;49.626;9.680;2022-11-15T04:55:15;7.80;95.20
298;DHT22;133;49.626;9.680;2022-11-15T04:57:41;7.80;95.50
298;DHT22;133;49.626;9.680;2022-11-15T05:00:09;7.70;95.30
298;DHT22;133;49.626;9.680;2022-11-15T05:02:36;7.60;94.90
298;DHT22;133;49.626;9.680;2022-11-15T05:05:20;7.60;95.10
298;DHT22;133;49.626;9.680;2022-11-15T05:07:46;7.50;95.30
298;DHT22;133;49.626;9.680;2022-11-15T05:10:12;7.50;95.30
298;DHT22;133;49.626;9.680;2022-11-15T05:12:37;7.50;95.30
298;DHT22;133;49.626;9.680;2022-11-15T05:15:06;7.50;95.30
298;DHT22;133;49.626;9.680;2022-11-15T05:17:31;7.50;95.20
298;DHT22;133;49.626;9.680;2022-11-15T05:19:57;7.40;95.00
298;DHT22;133;49.626;9.680;2022-11-15T05:22:23;7.40;94.80
298;DHT22;133;49.626;9.680;2022-11-15T05:24:48;7.30;95.10
298;DHT22;133;49.626;9.680;2022-11-15T05:27:14;7.20;95.30
298;DHT22;133;49.626;9.680;2022-11-15T05:29:40;7.20;95.50
298;DHT22;133;49.626;9.680;2022-11-15T05:32:07;7.10;95.40
298;DHT22;133;49.626;9.680;2022-11-15T05:34:34;7.10;95.50
298;DHT22;133;49.626;9.680;2022-11-15T05:37:00;7.10;95.40
298;DHT22;133;49.626;9.680;2022-11-15T05:39:26;7.10;95.70
298;DHT22;133;49.626;9.680;2022-11-15T05:41:58;7.10;95.70
298;DHT22;133;49.626;9.680;2022-11-15T05:44:25;7.20;95.90
298;DHT22;133;49.626;9.680;2022-11-15T05:46:53;7.20;95.80
298;DHT22;133;49.626;9.680;2022-11-15T05:49:24;7.20;96.20
298;DHT22;133;49.626;9.680;2022-11-15T05:51:51;7.20;96.30
298;DHT22;133;49.626;9.680;2022-11-15T05:54:19;7.20;96.30
298;DHT22;133;49.626;9.680;2022-11-15T05:56:47;7.30;96.20
298;DHT22;133;49.626;9.680;2022-11-15T05:59:13;7.30;95.60
298;DHT22;133;49.626;9.680;2022-11-15T06:01:39;7.30;95.70
298;DHT22;133;49.626;9.680;2022-11-15T06:04:05;7.30;95.30
298;DHT22;133;49.626;9.680;2022-11-15T06:06:31;7.20;94.60
298;DHT22;133;49.626;9.680;2022-11-15T06:08:56;7.20;94.80
298;DHT22;133;49.626;9.680;2022-11-15T06:11:22;7.20;94.70
298;DHT22;133;49.626;9.680;2022-11-15T06:13:48;7.10;94.50
298;DHT22;133;49.626;9.680;2022-11-15T06:16:13;7.10;95.00
298;DHT22;133;49.626;9.680;2022-11-15T06:18:39;7.10;95.30
298;DHT22;133;49.626;9.680;2022-11-15T06:21:05;7.10;95.60
298;DHT22;133;49.626;9.680;2022-11-15T06:23:33;7.20;95.60
298;DHT22;133;49.626;9.680;2022-11-15T06:26:02;7.10;95.30
298;DHT22;133;49.626;9.680;2022-11-15T06:28:29;7.10;95.70
298;DHT22;133;49.626;9.680;2022-11-15T06:30:55;7.20;95.50
298;DHT22;133;49.626;9.680;2022-11-15T06:33:20;7.10;95.30
298;DHT22;133;49.626;9.680;2022-11-15T06:35:46;7.20;95.10
298;DHT22;133;49.626;9.680;2022-11-15T06:38:12;7.20;94.60
298;DHT22;133;49.626;9.680;2022-11-15T06:40:38;7.20;94.70
298;DHT22;133;49.626;9.680;2022-11-15T06:43:05;7.20;95.10
298;DHT22;133;49.626;9.680;2022-11-15T06:45:33;7.20;94.90
298;DHT22;133;49.626;9.680;2022-11-15T06:47:58;7.20;94.30
298;DHT22;133;49.626;9.680;2022-11-15T06:50:24;7.10;94.10
298;DHT22;133;49.626;9.680;2022-11-15T06:52:50;7.10;94.60
298;DHT22;133;49.626;9.680;2022-11-15T06:55:16;7.10;94.90
298;DHT22;133;49.626;9.680;2022-11-15T06:57:52;7.10;94.80
298;DHT22;133;49.626;9.680;2022-11-15T07:00:19;7.10;94.70
298;DHT22;133;49.626;9.680;2022-11-15T07:02:46;7.20;94.60
298;DHT22;133;49.626;9.680;2022-11-15T07:05:12;7.20;94.80
298;DHT22;133;49.626;9.680;2022-11-15T07:07:38;7.20;95.10
298;DHT22;133;49.626;9.680;2022-11-15T07:10:04;7.30;95.10
298;DHT22;133;49.626;9.680;2022-11-15T07:12:31;7.30;94.50
298;DHT22;133;49.626;9.680;2022-11-15T07:14:57;7.20;94.90
298;DHT22;133;49.626;9.680;2022-11-15T07:17:23;7.30;94.90
298;DHT22;133;49.626;9.680;2022-11-15T07:19:48;7.30;94.70
298;DHT22;133;49.626;9.680;2022-11-15T07:22:14;7.30;94.50
298;DHT22;133;49.626;9.680;2022-11-15T07:24:40;7.30;94.30
298;DHT22;133;49.626;9.680;2022-11-15T07:27:05;7.30;94.50
298;DHT22;133;49.626;9.680;2022-11-15T07:29:31;7.30;94.50
298;DHT22;133;49.626;9.680;2022-11-15T07:31:57;7.30;94.50
298;DHT22;133;49.626;9.680;2022-11-15T07:34:23;7.40;94.60
298;DHT22;133;49.626;9.680;2022-11-15T07:36:49;7.40;94.70
298;DHT22;133;49.626;9.680;2022-11-15T07:39:14;7.40;94.80
298;DHT22;133;49.626;9.680;2022-11-15T07:41:40;7.50;94.90
298;DHT22;133;49.626;9.680;2022-11-15T07:44:05;7.50;95.00
298;DHT22;133;49.626;9.680;2022-11-15T07:46:31;7.50;94.80
298;DHT22;133;49.626;9.680;2022-11-15T07:48:58;7.50;94.50
298;DHT22;133;49.626;9.680;2022-11-15T07:51:24;7.50;94.60
298;DHT22;133;49.626;9.680;2022-11-15T07:53:50;7.50;94.70
298;DHT22;133;49.626;9.680;2022-11-15T07:56:15;7.50;94.70
298;DHT22;133;49.626;9.680;2022-11-15T07:58:41;7.50;94.60
298;DHT22;133;49.626;9.680;2022-11-15T08:01:08;7.50;94.80
298;DHT22;133;49.626;9.680;2022-11-15T08:03:35;7.50;94.90
298;DHT22;133;49.626;9.680;2022-11-15T08:06:01;7.60;94.90
298;DHT22;133;49.626;9.680;2022-11-15T08:08:26;7.70;94.90
298;DHT22;133;49.626;9.680;2022-11-15T08:10:52;7.80;94.90
298;DHT22;133;49.626;9.680;2022-11-15T08:13:18;7.80;94.70
298;DHT22;133;49.626;9.680;2022-11-15T08:15:43;7.90;94.60
298;DHT22;133;49.626;9.680;2022-11-15T08:18:14;8.00;94.30
298;DHT22;133;49.626;9.680;2022-11-15T08:20:41;8.10;94.20
298;DHT22;133;49.626;9.680;2022-11-15T08:23:07;8.20;93.80
298;DHT22;133;49.626;9.680;2022-11-15T08:25:34;8.20;93.60
298;DHT22;133;49.626;9.680;2022-11-15T08:28:03;8.30;93.50
298;DHT22;133;49.626;9.680;2022-11-15T08:30:30;8.40;93.60
298;DHT22;133;49.626;9.680;2022-11-15T08:32:57;8.40;93.40
298;DHT22;133;49.626;9.680;2022-11-15T08:35:23;8.50;93.10
298;DHT22;133;49.626;9.680;2022-11-15T08:37:49;8.60;93.10
298;DHT22;133;49.626;9.680;2022-11-15T08:40:15;8.70;93.10
298;DHT22;133;49.626;9.680;2022-11-15T08:42:41;8.80;92.90
298;DHT22;133;49.626;9.680;2022-11-15T08:45:07;8.90;92.50
298;DHT22;133;49.626;9.680;2022-11-15T08:47:34;9.00;92.40
298;DHT22;133;49.626;9.680;2022-11-15T08:50:00;9.10;92.30
298;DHT22;133;49.626;9.680;2022-11-15T08:52:25;9.20;92.10
298;DHT22;133;49.626;9.680;2022-11-15T08:54:51;9.30;92.20
298;DHT22;133;49.626;9.680;2022-11-15T08:57:17;9.40;91.50
298;DHT22;133;49.626;9.680;2022-11-15T08:59:43;9.30;91.50
298;DHT22;133;49.626;9.680;2022-11-15T09:02:13;9.40;91.40
298;DHT22;133;49.626;9.680;2022-11-15T09:04:41;9.20;91.30
298;DHT22;133;49.626;9.680;2022-11-15T09:07:08;9.30;91.30
298;DHT22;133;49.626;9.680;2022-11-15T09:09:33;9.30;91.10
298;DHT22;133;49.626;9.680;2022-11-15T09:11:59;9.40;90.90
298;DHT22;133;49.626;9.680;2022-11-15T09:14:24;9.60;91.00
298;DHT22;133;49.626;9.680;2022-11-15T09:16:50;9.80;90.60
298;DHT22;133;49.626;9.680;2022-11-15T09:19:16;9.90;90.30
298;DHT22;133;49.626;9.680;2022-11-15T09:21:41;10.10;90.30
298;DHT22;133;49.626;9.680;2022-11-15T09:24:07;10.30;90.00
298;DHT22;133;49.626;9.680;2022-11-15T09:26:33;10.30;89.80
298;DHT22;133;49.626;9.680;2022-11-15T09:28:59;10.40;89.70
298;DHT22;133;49.626;9.680;2022-11-15T09:31:26;10.60;89.30
298;DHT22;133;49.626;9.680;2022-11-15T09:33:52;10.90;88.50
298;DHT22;133;49.626;9.680;2022-11-15T09:36:18;11.10;88.00
298;DHT22;133;49.626;9.680;2022-11-15T09:38:43;11.30;87.30
298;DHT22;133;49.626;9.680;2022-11-15T09:49:39;11.80;85.30
298;DHT22;133;49.626;9.680;2022-11-15T09:52:06;11.80;85.20
298;DHT22;133;49.626;9.680;2022-11-15T09:54:38;11.80;85.10
298;DHT22;133;49.626;9.680;2022-11-15T09:57:14;11.90;85.50
298;DHT22;133;49.626;9.680;2022-11-15T10:00:16;11.90;85.40
298;DHT22;133;49.626;9.680;2022-11-15T10:05:16;12.10;84.40
298;DHT22;133;49.626;9.680;2022-11-15T10:07:54;12.00;85.00
298;DHT22;133;49.626;9.680;2022-11-15T10:10:38;12.10;84.30
298;DHT22;133;49.626;9.680;2022-11-15T10:13:06;12.10;84.20
298;DHT22;133;49.626;9.680;2022-11-15T10:15:35;12.20;84.20
298;DHT22;133;49.626;9.680;2022-11-15T10:18:04;12.30;84.30
298;DHT22;133;49.626;9.680;2022-11-15T10:21:17;12.40;84.50
298;DHT22;133;49.626;9.680;2022-11-15T10:23:23;12.60;84.50
298;DHT22;133;49.626;9.680;2022-11-15T10:25:55;12.80;83.60
298;DHT22;133;49.626;9.680;2022-11-15T10:28:27;13.00;83.30
298;DHT22;133;49.626;9.680;2022-11-15T10:30:56;13.20;83.00
298;DHT22;133;49.626;9.680;2022-11-15T10:41:29;13.60;82.60
298;DHT22;133;49.626;9.680;2022-11-15T10:46:27;13.80;81.80
298;DHT22;133;49.626;9.680;2022-11-15T10:48:53;13.90;81.60
298;DHT22;133;49.626;9.680;2022-11-15T10:51:51;14.00;81.50
298;DHT22;133;49.626;9.680;2022-11-15T10:54:46;14.10;80.60
298;DHT22;133;49.626;9.680;2022-11-15T10:57:22;14.00;80.50
298;DHT22;133;49.626;9.680;2022-11-15T10:59:52;13.90;81.40
298;DHT22;133;49.626;9.680;2022-11-15T11:02:31;13.70;82.00
298;DHT22;133;49.626;9.680;2022-11-15T11:04:58;13.70;82.60
298;DHT22;133;49.626;9.680;2022-11-15T11:07:30;13.50;83.00
298;DHT22;133;49.626;9.680;2022-11-15T11:10:04;13.50;82.60
298;DHT22;133;49.626;9.680;2022-11-15T11:12:32;13.60;82.10
298;DHT22;133;49.626;9.680;2022-11-15T11:15:00;13.60;82.50
298;DHT22;133;49.626;9.680;2022-11-15T11:17:55;13.70;82.60
298;DHT22;133;49.626;9.680;2022-11-15T11:20:33;13.70;82.80
298;DHT22;133;49.626;9.680;2022-11-15T11:23:33;13.80;82.40
298;DHT22;133;49.626;9.680;2022-11-15T11:26:15;13.70;82.80
298;DHT22;133;49.626;9.680;2022-11-15T11:37:25;13.60;83.00
298;DHT22;133;49.626;9.680;2022-11-15T11:42:56;13.50;82.80
298;DHT22;133;49.626;9.680;2022-11-15T11:49:04;13.70;83.10
298;DHT22;133;49.626;9.680;2022-11-15T11:51:27;13.90;82.80
298;DHT22;133;49.626;9.680;2022-11-15T11:53:58;14.00;82.40
298;DHT22;133;49.626;9.680;2022-11-15T11:56:31;14.00;82.00
298;DHT22;133;49.626;9.680;2022-11-15T12:01:52;14.20;81.70
298;DHT22;133;49.626;9.680;2022-11-15T12:04:30;14.20;81.80
298;DHT22;133;49.626;9.680;2022-11-15T12:06:58;14.10;82.30
298;DHT22;133;49.626;9.680;2022-11-15T12:12:47;14.20;82.60
298;DHT22;133;49.626;9.680;2022-11-15T12:15:32;14.20;82.50
298;DHT22;133;49.626;9.680;2022-11-15T12:18:01;14.20;82.50
298;DHT22;133;49.626;9.680;2022-11-15T12:20:31;14.20;82.30
298;DHT22;133;49.626;9.680;2022-11-15T12:23:06;14.30;82.40
298;DHT22;133;49.626;9.680;2022-11-15T12:25:54;14.30;82.40
298;DHT22;133;49.626;9.680;2022-11-15T12:28:42;14.30;82.60
298;DHT22;133;49.626;9.680;2022-11-15T12:34:12;14.60;82.60
298;DHT22;133;49.626;9.680;2022-11-15T12:36:41;14.80;82.50
298;DHT22;133;49.626;9.680;2022-11-15T12:39:09;14.90;82.10
298;DHT22;133;49.626;9.680;2022-11-15T12:41:44;15.10;81.70
298;DHT22;133;49.626;9.680;2022-11-15T12:44:12;15.30;81.10
298;DHT22;133;49.626;9.680;2022-11-15T12:59:51;15.80;79.60
298;DHT22;133;49.626;9.680;2022-11-15T13:02:39;15.80;79.30
298;DHT22;133;49.626;9.680;2022-11-15T13:17:48;15.40;80.90
298;DHT22;133;49.626;9.680;2022-11-15T13:25:27;15.50;81.30
298;DHT22;133;49.626;9.680;2022-11-15T13:27:56;15.50;81.00
298;DHT22;133;49.626;9.680;2022-11-15T13:30:28;15.50;80.90
298;DHT22;133;49.626;9.680;2022-11-15T13:32:54;15.60;80.60
298;DHT22;133;49.626;9.680;2022-11-15T13:35:23;15.50;79.60
298;DHT22;133;49.626;9.680;2022-11-15T13:37:50;15.30;79.80
298;DHT22;133;49.626;9.680;2022-11-15T13:40:27;15.10;80.20
298;DHT22;133;49.626;9.680;2022-11-15T13:42:56;15.10;80.60
298;DHT22;133;49.626;9.680;2022-11-15T13:45:22;14.90;81.20
298;DHT22;133;49.626;9.680;2022-11-15T13:47:53;14.90;81.50
298;DHT22;133;49.626;9.680;2022-11-15T13:50:22;14.90;81.80
298;DHT22;133;49.626;9.680;2022-11-15T13:52:49;14.80;81.90
298;DHT22;133;49.626;9.680;2022-11-15T13:55:25;14.70;82.20
298;DHT22;133;49.626;9.680;2022-11-15T13:58:00;14.70;82.10
298;DHT22;133;49.626;9.680;2022-11-15T14:03:31;14.90;82.70
298;DHT22;133;49.626;9.680;2022-11-15T14:06:07;14.90;82.60
298;DHT22;133;49.626;9.680;2022-11-15T14:08:35;15.00;81.50
298;DHT22;133;49.626;9.680;2022-11-15T14:11:19;15.00;81.60
298;DHT22;133;49.626;9.680;2022-11-15T14:19:08;15.00;81.80
298;DHT22;133;49.626;9.680;2022-11-15T14:21:34;15.00;82.30
298;DHT22;133;49.626;9.680;2022-11-15T14:24:18;15.00;82.50
298;DHT22;133;49.626;9.680;2022-11-15T14:26:44;15.00;82.50
298;DHT22;133;49.626;9.680;2022-11-15T14:31:48;15.00;82.60
298;DHT22;133;49.626;9.680;2022-11-15T14:34:13;15.00;82.70
298;DHT22;133;49.626;9.680;2022-11-15T14:36:39;15.00;82.90
298;DHT22;133;49.626;9.680;2022-11-15T14:39:04;15.00;83.10
298;DHT22;133;49.626;9.680;2022-11-15T14:41:35;15.00;83.20
298;DHT22;133;49.626;9.680;2022-11-15T14:44:03;14.90;83.40
298;DHT22;133;49.626;9.680;2022-11-15T14:46:29;14.90;83.70
298;DHT22;133;49.626;9.680;2022-11-15T14:48:54;14.80;83.90
298;DHT22;133;49.626;9.680;2022-11-15T14:51:20;14.70;84.30
298;DHT22;133;49.626;9.680;2022-11-15T14:53:46;14.70;84.80
298;DHT22;133;49.626;9.680;2022-11-15T14:56:13;14.50;85.60
298;DHT22;133;49.626;9.680;2022-11-15T14:58:39;14.40;86.30
298;DHT22;133;49.626;9.680;2022-11-15T15:01:12;14.50;86.40
298;DHT22;133;49.626;9.680;2022-11-15T15:03:38;14.40;86.90
298;DHT22;133;49.626;9.680;2022-11-15T15:06:04;14.40;86.90
298;DHT22;133;49.626;9.680;2022-11-15T15:08:29;14.40;86.90
298;DHT22;133;49.626;9.680;2022-11-15T15:10:55;14.40;87.00
298;DHT22;133;49.626;9.680;2022-11-15T15:13:23;14.40;87.20
298;DHT22;133;49.626;9.680;2022-11-15T15:15:50;14.40;87.30
298;DHT22;133;49.626;9.680;2022-11-15T15:18:17;14.40;87.40
298;DHT22;133;49.626;9.680;2022-11-15T15:20:44;14.40;87.40
298;DHT22;133;49.626;9.680;2022-11-15T15:23:18;14.40;87.30
298;DHT22;133;49.626;9.680;2022-11-15T15:25:44;14.40;87.40
298;DHT22;133;49.626;9.680;2022-11-15T15:28:11;14.30;86.30
298;DHT22;133;49.626;9.680;2022-11-15T15:30:37;14.30;85.00
298;DHT22;133;49.626;9.680;2022-11-15T15:33:02;14.20;85.50
298;DHT22;133;49.626;9.680;2022-11-15T15:35:31;14.20;85.70
298;DHT22;133;49.626;9.680;2022-11-15T15:37:57;13.90;86.50
298;DHT22;133;49.626;9.680;2022-11-15T15:40:25;13.70;87.70
298;DHT22;133;49.626;9.680;2022-11-15T15:42:51;13.60;87.80
298;DHT22;133;49.626;9.680;2022-11-15T15:45:18;13.60;87.90
298;DHT22;133;49.626;9.680;2022-11-15T15:47:44;13.60;88.00
298;DHT22;133;49.626;9.680;2022-11-15T15:50:27;13.60;88.00
298;DHT22;133;49.626;9.680;2022-11-15T15:52:56;13.60;87.90
298;DHT22;133;49.626;9.680;2022-11-15T15:55:22;13.60;87.90
298;DHT22;133;49.626;9.680;2022-11-15T15:57:48;13.60;88.00
298;DHT22;133;49.626;9.680;2022-11-15T16:00:14;13.60;88.00
298;DHT22;133;49.626;9.680;2022-11-15T16:02:41;13.60;88.10
298;DHT22;133;49.626;9.680;2022-11-15T16:05:07;13.60;88.20
298;DHT22;133;49.626;9.680;2022-11-15T16:07:33;13.60;88.30
298;DHT22;133;49.626;9.680;2022-11-15T16:09:59;13.50;88.40
298;DHT22;133;49.626;9.680;2022-11-15T16:12:32;13.50;88.50
298;DHT22;133;49.626;9.680;2022-11-15T16:14:59;13.50;88.60
298;DHT22;133;49.626;9.680;2022-11-15T16:17:28;13.50;88.80
298;DHT22;133;49.626;9.680;2022-11-15T16:19:55;13.50;89.00
298;DHT22;133;49.626;9.680;2022-11-15T16:22:21;13.50;89.00
298;DHT22;133;49.626;9.680;2022-11-15T16:24:46;13.40;89.20
298;DHT22;133;49.626;9.680;2022-11-15T16:27:17;13.40;89.40
298;DHT22;133;49.626;9.680;2022-11-15T16:29:45;13.40;89.40
298;DHT22;133;49.626;9.680;2022-11-15T16:32:12;13.30;89.50
298;DHT22;133;49.626;9.680;2022-11-15T16:34:38;13.30;89.50
298;DHT22;133;49.626;9.680;2022-11-15T16:37:04;13.30;89.50
298;DHT22;133;49.626;9.680;2022-11-15T16:39:30;13.30;89.50
298;DHT22;133;49.626;9.680;2022-11-15T16:41:57;13.30;89.50
298;DHT22;133;49.626;9.680;2022-11-15T16:44:23;13.20;89.50
298;DHT22;133;49.626;9.680;2022-11-15T16:46:49;13.10;89.60
298;DHT22;133;49.626;9.680;2022-11-15T16:49:17;13.00;89.80
298;DHT22;133;49.626;9.680;2022-11-15T16:51:45;13.00;89.40
298;DHT22;133;49.626;9.680;2022-11-15T16:54:14;13.00;89.40
298;DHT22;133;49.626;9.680;2022-11-15T16:56:39;13.00;89.30
298;DHT22;133;49.626;9.680;2022-11-15T16:59:06;13.10;89.10
298;DHT22;133;49.626;9.680;2022-11-15T17:01:34;13.10;89.00
298;DHT22;133;49.626;9.680;2022-11-15T17:04:11;13.10;88.70
298;DHT22;133;49.626;9.680;2022-11-15T17:06:38;13.20;88.10
298;DHT22;133;49.626;9.680;2022-11-15T17:09:04;13.20;87.40
298;DHT22;133;49.626;9.680;2022-11-15T17:11:29;13.20;87.10
298;DHT22;133;49.626;9.680;2022-11-15T17:13:58;13.20;86.60
298;DHT22;133;49.626;9.680;2022-11-15T17:16:25;13.10;86.50
298;DHT22;133;49.626;9.680;2022-11-15T17:18:51;13.00;86.80
298;DHT22;133;49.626;9.680;2022-11-15T17:21:18;13.10;86.60
298;DHT22;133;49.626;9.680;2022-11-15T17:23:45;13.00;86.30
298;DHT22;133;49.626;9.680;2022-11-15T17:26:12;13.00;86.10
298;DHT22;133;49.626;9.680;2022-11-15T17:28:38;13.10;85.60
298;DHT22;133;49.626;9.680;2022-11-15T17:31:08;13.10;85.60
298;DHT22;133;49.626;9.680;2022-11-15T17:33:37;13.10;85.50
298;DHT22;133;49.626;9.680;2022-11-15T17:36:06;13.10;85.40
298;DHT22;133;49.626;9.680;2022-11-15T17:38:32;13.10;85.40
298;DHT22;133;49.626;9.680;2022-11-15T17:41:06;13.10;85.30
298;DHT22;133;49.626;9.680;2022-11-15T17:43:34;13.10;85.20
298;DHT22;133;49.626;9.680;2022-11-15T17:46:04;13.10;85.10
298;DHT22;133;49.626;9.680;2022-11-15T17:48:30;13.10;85.20
298;DHT22;133;49.626;9.680;2022-11-15T17:51:01;13.00;86.00
298;DHT22;133;49.626;9.680;2022-11-15T17:53:34;13.00;86.20
298;DHT22;133;49.626;9.680;2022-11-15T17:56:08;13.00;85.70
298;DHT22;133;49.626;9.680;2022-11-15T17:58:34;13.00;85.40
298;DHT22;133;49.626;9.680;2022-11-15T18:01:17;13.00;85.20
298;DHT22;133;49.626;9.680;2022-11-15T18:03:43;13.00;85.00
298;DHT22;133;49.626;9.680;2022-11-15T18:06:10;13.00;84.90
298;DHT22;133;49.626;9.680;2022-11-15T18:08:37;13.00;85.00
298;DHT22;133;49.626;9.680;2022-11-15T18:11:16;13.00;85.10
298;DHT22;133;49.626;9.680;2022-11-15T18:13:44;13.00;85.20
298;DHT22;133;49.626;9.680;2022-11-15T18:16:12;13.00;85.30
298;DHT22;133;49.626;9.680;2022-11-15T18:18:39;13.00;85.20
298;DHT22;133;49.626;9.680;2022-11-15T18:21:07;13.00;85.30
298;DHT22;133;49.626;9.680;2022-11-15T18:23:34;12.90;85.20
298;DHT22;133;49.626;9.680;2022-11-15T18:26:01;12.90;85.10
298;DHT22;133;49.626;9.680;2022-11-15T18:28:36;12.90;85.10
298;DHT22;133;49.626;9.680;2022-11-15T18:31:10;12.90;85.10
298;DHT22;133;49.626;9.680;2022-11-15T18:33:37;12.90;84.90
298;DHT22;133;49.626;9.680;2022-11-15T18:36:05;12.90;84.60
298;DHT22;133;49.626;9.680;2022-11-15T18:38:32;12.90;84.50
298;DHT22;133;49.626;9.680;2022-11-15T18:41:05;12.80;84.80
298;DHT22;133;49.626;9.680;2022-11-15T18:43:31;12.80;84.70
298;DHT22;133;49.626;9.680;2022-11-15T18:46:05;12.80;84.50
298;DHT22;133;49.626;9.680;2022-11-15T18:48:31;12.80;84.80